createdAt,value
2018-09-05T00:00:35.964Z,0
2018-09-05T00:01:38.067Z,0
2018-09-05T00:02:40.553Z,0
2018-09-05T00:03:42.642Z,0
2018-09-05T00:04:44.755Z,0
2018-09-05T00:05:46.857Z,0
2018-09-05T00:06:49.528Z,0
2018-09-05T00:07:51.633Z,0
2018-09-05T00:08:54.032Z,0
2018-09-05T00:09:56.129Z,0
2018-09-05T00:10:58.238Z,0
2018-09-05T00:12:00.351Z,0
2018-09-05T00:13:02.726Z,0
2018-09-05T00:14:04.833Z,0
2018-09-05T00:15:06.947Z,0
2018-09-05T00:16:09.681Z,0
2018-09-05T00:17:11.784Z,0
2018-09-05T00:18:14.189Z,0
2018-09-05T00:19:16.280Z,0
2018-09-05T00:20:18.396Z,0
2018-09-05T00:21:20.492Z,0
2018-09-05T00:22:22.987Z,0
2018-09-05T00:23:25.084Z,0
2018-09-05T00:24:27.199Z,0
2018-09-05T00:25:29.292Z,0
2018-09-05T00:26:31.687Z,0
2018-09-05T00:27:34.493Z,0
2018-09-05T00:28:36.579Z,0
2018-09-05T00:29:38.691Z,0
2018-09-05T00:30:41.102Z,0
2018-09-05T00:31:43.207Z,0
2018-09-05T00:32:45.291Z,0
2018-09-05T00:33:47.398Z,0
2018-09-05T00:34:49.493Z,0
2018-09-05T00:35:51.586Z,0
2018-09-05T00:36:54.096Z,0
2018-09-05T00:37:56.575Z,0
2018-09-05T00:38:58.680Z,0
2018-09-05T00:40:00.791Z,0
2018-09-05T00:41:03.188Z,0
2018-09-05T00:42:05.283Z,0
2018-09-05T00:43:07.389Z,0
2018-09-05T00:44:09.484Z,0
2018-09-05T00:45:11.585Z,0
2018-09-05T00:46:13.696Z,0
2018-09-05T00:47:16.091Z,0
2018-09-05T00:48:18.476Z,0
2018-09-05T00:49:20.895Z,0
2018-09-05T00:50:23.284Z,0
2018-09-05T00:51:25.671Z,0
2018-09-05T00:52:28.069Z,0
2018-09-05T00:53:30.156Z,0
2018-09-05T00:54:32.264Z,0
2018-09-05T00:55:34.361Z,0
2018-09-05T00:56:36.477Z,0
2018-09-05T00:57:38.872Z,0
2018-09-05T00:58:40.985Z,0
2018-09-05T00:59:43.379Z,0
2018-09-05T01:00:45.472Z,0
2018-09-05T01:01:47.588Z,0
2018-09-05T01:02:50.282Z,0
2018-09-05T01:03:52.385Z,0
2018-09-05T01:04:54.881Z,0
2018-09-05T01:05:56.999Z,0
2018-09-05T01:06:59.092Z,0
2018-09-05T01:08:01.202Z,0
2018-09-05T01:09:03.697Z,0
2018-09-05T01:10:05.788Z,0
2018-09-05T01:11:07.892Z,0
2018-09-05T01:12:10.384Z,0
2018-09-05T01:13:13.072Z,0
2018-09-05T01:14:15.172Z,0
2018-09-05T01:15:17.265Z,0
2018-09-05T01:16:19.373Z,0
2018-09-05T01:17:21.464Z,0
2018-09-05T01:18:23.573Z,0
2018-09-05T01:19:25.686Z,0
2018-09-05T01:20:27.792Z,0
2018-09-05T01:21:29.884Z,0
2018-09-05T01:22:32.293Z,0
2018-09-05T01:23:34.682Z,0
2018-09-05T01:24:37.075Z,0
2018-09-05T01:25:39.497Z,0
2018-09-05T01:26:41.893Z,0
2018-09-05T01:27:43.992Z,0
2018-09-05T01:28:46.097Z,0
2018-09-05T01:29:48.212Z,0
2018-09-05T01:30:50.306Z,0
2018-09-05T01:31:52.417Z,0
2018-09-05T01:32:54.910Z,0
2018-09-05T01:33:57.011Z,0
2018-09-05T01:34:59.127Z,0
2018-09-05T01:36:01.219Z,0
2018-09-05T01:37:03.317Z,0
2018-09-05T01:38:05.419Z,0
2018-09-05T01:39:07.532Z,0
2018-09-05T01:40:09.632Z,0
2018-09-05T01:41:11.743Z,0
2018-09-05T01:42:13.847Z,0
2018-09-05T01:43:15.935Z,0
2018-09-05T01:44:18.439Z,0
2018-09-05T01:45:20.544Z,0
2018-09-05T01:46:22.643Z,0
2018-09-05T01:47:24.749Z,0
2018-09-05T01:48:27.160Z,0
2018-09-05T01:49:29.270Z,0
2018-09-05T01:50:31.364Z,0
2018-09-05T01:51:33.857Z,0
2018-09-05T01:52:35.970Z,0
2018-09-05T01:53:38.361Z,0
2018-09-05T01:54:40.453Z,0
2018-09-05T01:55:42.565Z,0
2018-09-05T01:56:44.663Z,0
2018-09-05T01:57:46.765Z,0
2018-09-05T01:58:48.878Z,0
2018-09-05T01:59:50.968Z,0
2018-09-05T02:00:53.074Z,0
2018-09-05T02:01:55.175Z,0
2018-09-05T02:02:57.292Z,0
2018-09-05T02:03:59.676Z,0
2018-09-05T02:05:01.799Z,0
2018-09-05T02:06:04.188Z,0
2018-09-05T02:07:06.290Z,0
2018-09-05T02:08:08.408Z,0
2018-09-05T02:09:10.889Z,0
2018-09-05T02:10:12.988Z,0
2018-09-05T02:11:15.483Z,0
2018-09-05T02:12:17.597Z,0
2018-09-05T02:13:19.694Z,0
2018-09-05T02:14:21.801Z,0
2018-09-05T02:15:23.909Z,0
2018-09-05T02:16:25.999Z,0
2018-09-05T02:17:28.114Z,0
2018-09-05T02:18:30.220Z,0
2018-09-05T02:19:32.609Z,0
2018-09-05T02:20:34.712Z,0
2018-09-05T02:21:37.109Z,0
2018-09-05T02:22:39.208Z,0
2018-09-05T02:23:41.353Z,0
2018-09-05T02:24:43.428Z,0
2018-09-05T02:25:45.524Z,0
2018-09-05T02:26:47.627Z,0
2018-09-05T02:27:49.731Z,0
2018-09-05T02:28:51.848Z,0
2018-09-05T02:29:53.951Z,0
2018-09-05T02:30:56.051Z,0
2018-09-05T02:31:58.161Z,0
2018-09-05T02:33:00.251Z,0
2018-09-05T02:34:02.358Z,0
2018-09-05T02:35:04.457Z,0
2018-09-05T02:36:06.575Z,0
2018-09-05T02:37:08.970Z,0
2018-09-05T02:38:11.084Z,0
2018-09-05T02:39:13.186Z,0
2018-09-05T02:40:15.321Z,0
2018-09-05T02:41:17.409Z,0
2018-09-05T02:42:19.503Z,0
2018-09-05T02:43:21.603Z,0
2018-09-05T02:44:24.093Z,0
2018-09-05T02:45:26.209Z,0
2018-09-05T02:46:28.307Z,0
2018-09-05T02:47:30.413Z,0
2018-09-05T02:48:32.519Z,0
2018-09-05T02:49:34.612Z,0
2018-09-05T02:50:37.012Z,0
2018-09-05T02:51:39.513Z,0
2018-09-05T02:52:41.899Z,0
2018-09-05T02:53:44.294Z,0
2018-09-05T02:54:46.408Z,0
2018-09-05T02:55:48.508Z,0
2018-09-05T02:56:50.626Z,0
2018-09-05T02:57:53.052Z,0
2018-09-05T02:58:55.149Z,0
2018-09-05T02:59:57.841Z,0
2018-09-05T03:01:00.356Z,0
2018-09-05T03:02:02.441Z,0
2018-09-05T03:03:04.543Z,0
2018-09-05T03:04:06.949Z,0
2018-09-05T03:05:09.427Z,0
2018-09-05T03:06:11.544Z,0
2018-09-05T03:07:13.644Z,0
2018-09-05T03:08:15.749Z,0
2018-09-05T03:09:17.857Z,0
2018-09-05T03:10:19.963Z,0
2018-09-05T03:11:22.352Z,0
2018-09-05T03:12:24.450Z,0
2018-09-05T03:13:26.561Z,0
2018-09-05T03:14:28.648Z,0
2018-09-05T03:15:31.050Z,0
2018-09-05T03:16:33.164Z,0
2018-09-05T03:17:35.270Z,0
2018-09-05T03:18:37.361Z,0
2018-09-05T03:19:39.472Z,0
2018-09-05T03:20:41.576Z,0
2018-09-05T03:21:43.681Z,0
2018-09-05T03:22:46.112Z,0
2018-09-05T03:23:48.207Z,0
2018-09-05T03:24:50.314Z,0
2018-09-05T03:25:52.737Z,0
2018-09-05T03:26:54.841Z,0
2018-09-05T03:27:57.229Z,0
2018-09-05T03:28:59.340Z,0
2018-09-05T03:30:01.437Z,0
2018-09-05T03:31:03.838Z,0
2018-09-05T03:32:05.949Z,0
2018-09-05T03:33:08.915Z,0
2018-09-05T03:34:11.502Z,0
2018-09-05T03:35:13.942Z,0
2018-09-05T03:36:16.043Z,0
2018-09-05T03:37:18.143Z,0
2018-09-05T03:38:20.264Z,0
2018-09-05T03:39:22.348Z,0
2018-09-05T03:40:24.457Z,0
2018-09-05T03:41:26.558Z,0
2018-09-05T03:42:28.678Z,0
2018-09-05T03:43:30.784Z,0
2018-09-05T03:44:32.888Z,0
2018-09-05T03:45:35.690Z,0
2018-09-05T03:46:38.114Z,0
2018-09-05T03:47:40.207Z,0
2018-09-05T03:48:42.367Z,0
2018-09-05T03:49:44.534Z,0
2018-09-05T03:50:46.870Z,0
2018-09-05T03:51:48.963Z,0
2018-09-05T03:52:51.071Z,0
2018-09-05T03:53:53.177Z,0
2018-09-05T03:54:55.661Z,0
2018-09-05T03:55:58.074Z,0
2018-09-05T03:57:00.168Z,0
2018-09-05T03:58:02.868Z,0
2018-09-05T03:59:04.983Z,0
2018-09-05T04:00:07.086Z,0
2018-09-05T04:01:09.185Z,0
2018-09-05T04:02:11.601Z,0
2018-09-05T04:03:13.695Z,0
2018-09-05T04:04:15.810Z,0
2018-09-05T04:05:18.315Z,0
2018-09-05T04:06:20.415Z,0
2018-09-05T04:07:22.512Z,0
2018-09-05T04:08:24.920Z,0
2018-09-05T04:09:27.019Z,0
2018-09-05T04:10:29.408Z,0
2018-09-05T04:11:31.517Z,0
2018-09-05T04:12:33.612Z,0
2018-09-05T04:13:35.717Z,0
2018-09-05T04:14:37.828Z,0
2018-09-05T04:15:39.944Z,0
2018-09-05T04:16:42.031Z,0
2018-09-05T04:17:44.147Z,0
2018-09-05T04:18:46.538Z,0
2018-09-05T04:19:48.632Z,0
2018-09-05T04:20:51.026Z,0
2018-09-05T04:21:54.303Z,0
2018-09-05T04:22:56.351Z,0
2018-09-05T04:23:58.462Z,0
2018-09-05T04:25:00.550Z,0
2018-09-05T04:26:02.660Z,0
2018-09-05T04:27:05.053Z,0
2018-09-05T04:28:07.748Z,0
2018-09-05T04:29:10.174Z,0
2018-09-05T04:30:12.271Z,0
2018-09-05T04:31:14.972Z,0
2018-09-05T04:32:17.395Z,0
2018-09-05T04:33:19.898Z,0
2018-09-05T04:34:21.989Z,1
2018-09-05T04:35:24.093Z,1
2018-09-05T04:36:26.189Z,1
2018-09-05T04:37:28.590Z,1
2018-09-05T04:38:31.010Z,1
2018-09-05T04:39:33.116Z,1
2018-09-05T04:40:35.205Z,1
2018-09-05T04:41:37.348Z,1
2018-09-05T04:42:39.430Z,1
2018-09-05T04:43:41.528Z,1
2018-09-05T04:44:43.639Z,1
2018-09-05T04:45:45.724Z,2
2018-09-05T04:46:48.118Z,2
2018-09-05T04:47:50.225Z,2
2018-09-05T04:48:52.334Z,2
2018-09-05T04:49:54.424Z,2
2018-09-05T04:50:56.541Z,2
2018-09-05T04:51:58.683Z,2
2018-09-05T04:53:01.029Z,3
2018-09-05T04:54:03.540Z,3
2018-09-05T04:55:05.637Z,3
2018-09-05T04:56:07.736Z,3
2018-09-05T04:57:10.221Z,3
2018-09-05T04:58:12.343Z,4
2018-09-05T04:59:14.442Z,4
2018-09-05T05:00:16.553Z,4
2018-09-05T05:01:18.647Z,4
2018-09-05T05:02:21.054Z,4
2018-09-05T05:03:23.152Z,4
2018-09-05T05:04:25.266Z,4
2018-09-05T05:05:27.431Z,4
2018-09-05T05:06:29.488Z,4
2018-09-05T05:07:31.880Z,4
2018-09-05T05:08:33.984Z,5
2018-09-05T05:09:36.082Z,4
2018-09-05T05:10:38.192Z,5
2018-09-05T05:11:40.597Z,5
2018-09-05T05:12:43.026Z,5
2018-09-05T05:13:45.122Z,6
2018-09-05T05:14:47.234Z,6
2018-09-05T05:15:49.335Z,6
2018-09-05T05:16:51.437Z,6
2018-09-05T05:17:53.843Z,6
2018-09-05T05:18:55.933Z,6
2018-09-05T05:19:58.628Z,6
2018-09-05T05:21:00.736Z,7
2018-09-05T05:22:02.850Z,7
2018-09-05T05:23:04.938Z,7
2018-09-05T05:24:07.341Z,7
2018-09-05T05:25:09.445Z,7
2018-09-05T05:26:11.544Z,8
2018-09-05T05:27:14.698Z,9
2018-09-05T05:28:17.768Z,8
2018-09-05T05:29:19.875Z,8
2018-09-05T05:30:21.976Z,8
2018-09-05T05:31:24.094Z,8
2018-09-05T05:32:27.146Z,9
2018-09-05T05:33:29.479Z,7
2018-09-05T05:34:31.588Z,7
2018-09-05T05:35:33.679Z,8
2018-09-05T05:36:36.177Z,8
2018-09-05T05:37:38.280Z,8
2018-09-05T05:38:40.375Z,9
2018-09-05T05:39:42.477Z,8
2018-09-05T05:40:44.875Z,9
2018-09-05T05:41:47.279Z,9
2018-09-05T05:42:49.393Z,8
2018-09-05T05:43:51.496Z,8
2018-09-05T05:44:53.592Z,8
2018-09-05T05:45:55.697Z,9
2018-09-05T05:46:57.819Z,10
2018-09-05T05:48:00.513Z,10
2018-09-05T05:49:02.627Z,8
2018-09-05T05:50:04.734Z,9
2018-09-05T05:51:06.829Z,10
2018-09-05T05:52:08.939Z,10
2018-09-05T05:53:11.040Z,9
2018-09-05T05:54:13.146Z,11
2018-09-05T05:55:15.662Z,11
2018-09-05T05:56:17.781Z,11
2018-09-05T05:57:19.877Z,13
2018-09-05T05:58:21.985Z,13
2018-09-05T05:59:24.099Z,13
2018-09-05T06:00:26.792Z,15
2018-09-05T06:01:28.904Z,15
2018-09-05T06:02:31.005Z,14
2018-09-05T06:03:33.116Z,14
2018-09-05T06:04:35.406Z,15
2018-09-05T06:05:37.516Z,12
2018-09-05T06:06:39.624Z,11
2018-09-05T06:07:41.717Z,10
2018-09-05T06:08:43.834Z,11
2018-09-05T06:09:46.220Z,11
2018-09-05T06:10:48.325Z,11
2018-09-05T06:11:50.435Z,11
2018-09-05T06:12:52.544Z,11
2018-09-05T06:13:54.940Z,12
2018-09-05T06:14:57.437Z,14
2018-09-05T06:15:59.856Z,14
2018-09-05T06:17:01.963Z,14
2018-09-05T06:18:04.496Z,14
2018-09-05T06:19:06.512Z,16
2018-09-05T06:20:08.625Z,14
2018-09-05T06:21:11.337Z,16
2018-09-05T06:22:13.815Z,18
2018-09-05T06:23:15.924Z,16
2018-09-05T06:24:18.020Z,16
2018-09-05T06:25:20.914Z,16
2018-09-05T06:26:23.019Z,15
2018-09-05T06:27:25.135Z,15
2018-09-05T06:28:27.228Z,19
2018-09-05T06:29:29.346Z,21
2018-09-05T06:30:31.595Z,23
2018-09-05T06:31:33.542Z,22
2018-09-05T06:32:35.942Z,24
2018-09-05T06:33:38.034Z,23
2018-09-05T06:34:40.143Z,24
2018-09-05T06:35:42.245Z,23
2018-09-05T06:36:44.349Z,26
2018-09-05T06:37:46.441Z,24
2018-09-05T06:38:48.947Z,24
2018-09-05T06:39:51.049Z,25
2018-09-05T06:40:53.151Z,27
2018-09-05T06:41:55.274Z,29
2018-09-05T06:42:57.372Z,27
2018-09-05T06:43:59.481Z,24
2018-09-05T06:45:01.647Z,24
2018-09-05T06:46:03.700Z,25
2018-09-05T06:47:06.493Z,27
2018-09-05T06:48:08.607Z,26
2018-09-05T06:49:10.992Z,23
2018-09-05T06:50:13.098Z,28
2018-09-05T06:51:15.228Z,45
2018-09-05T06:52:17.353Z,48
2018-09-05T06:53:19.451Z,45
2018-09-05T06:54:21.583Z,41
2018-09-05T06:55:23.683Z,42
2018-09-05T06:56:25.783Z,41
2018-09-05T06:57:27.901Z,34
2018-09-05T06:58:29.992Z,34
2018-09-05T06:59:32.399Z,35
2018-09-05T07:00:34.507Z,37
2018-09-05T07:01:36.629Z,35
2018-09-05T07:02:38.720Z,34
2018-09-05T07:03:41.618Z,30
2018-09-05T07:04:43.858Z,28
2018-09-05T07:05:46.646Z,23
2018-09-05T07:06:48.769Z,23
2018-09-05T07:07:50.860Z,23
2018-09-05T07:08:52.967Z,28
2018-09-05T07:09:55.856Z,26
2018-09-05T07:10:57.950Z,27
2018-09-05T07:12:00.047Z,29
2018-09-05T07:13:02.167Z,30
2018-09-05T07:14:04.641Z,29
2018-09-05T07:15:06.666Z,27
2018-09-05T07:16:08.782Z,27
2018-09-05T07:17:11.179Z,28
2018-09-05T07:18:13.278Z,27
2018-09-05T07:19:15.391Z,31
2018-09-05T07:20:17.817Z,31
2018-09-05T07:21:20.325Z,30
2018-09-05T07:22:22.347Z,28
2018-09-05T07:23:24.741Z,30
2018-09-05T07:24:27.150Z,33
2018-09-05T07:25:29.552Z,36
2018-09-05T07:26:31.660Z,35
2018-09-05T07:27:34.222Z,37
2018-09-05T07:28:36.311Z,37
2018-09-05T07:29:38.423Z,34
2018-09-05T07:30:40.680Z,36
2018-09-05T07:31:42.633Z,38
2018-09-05T07:32:44.744Z,39
2018-09-05T07:33:46.853Z,43
2018-09-05T07:34:48.968Z,42
2018-09-05T07:35:51.061Z,39
2018-09-05T07:36:53.174Z,38
2018-09-05T07:37:55.280Z,37
2018-09-05T07:38:57.673Z,37
2018-09-05T07:40:00.086Z,35
2018-09-05T07:41:02.187Z,33
2018-09-05T07:42:04.296Z,32
2018-09-05T07:43:06.394Z,32
2018-09-05T07:44:08.521Z,35
2018-09-05T07:45:10.616Z,36
2018-09-05T07:46:13.022Z,34
2018-09-05T07:47:15.133Z,30
2018-09-05T07:48:17.507Z,28
2018-09-05T07:49:19.620Z,30
2018-09-05T07:50:21.723Z,29
2018-09-05T07:51:23.818Z,33
2018-09-05T07:52:25.937Z,44
2018-09-05T07:53:28.651Z,47
2018-09-05T07:54:30.754Z,54
2018-09-05T07:55:32.869Z,50
2018-09-05T07:56:35.371Z,53
2018-09-05T07:57:37.471Z,51
2018-09-05T07:58:39.574Z,49
2018-09-05T07:59:42.079Z,41
2018-09-05T08:00:44.172Z,38
2018-09-05T08:01:46.280Z,46
2018-09-05T08:02:49.121Z,53
2018-09-05T08:03:51.162Z,50
2018-09-05T08:04:53.278Z,57
2018-09-05T08:05:55.768Z,69
2018-09-05T08:06:58.268Z,75
2018-09-05T08:08:00.652Z,65
2018-09-05T08:09:02.770Z,61
2018-09-05T08:10:04.869Z,62
2018-09-05T08:11:06.980Z,54
2018-09-05T08:12:09.397Z,52
2018-09-05T08:13:11.770Z,53
2018-09-05T08:14:13.885Z,43
2018-09-05T08:15:16.278Z,41
2018-09-05T08:16:18.389Z,43
2018-09-05T08:17:20.501Z,44
2018-09-05T08:18:22.597Z,45
2018-09-05T08:19:25.093Z,49
2018-09-05T08:20:27.487Z,52
2018-09-05T08:21:29.615Z,56
2018-09-05T08:22:31.708Z,56
2018-09-05T08:23:33.812Z,62
2018-09-05T08:24:36.032Z,65
2018-09-05T08:25:38.030Z,67
2018-09-05T08:26:40.131Z,67
2018-09-05T08:27:42.243Z,64
2018-09-05T08:28:44.365Z,57
2018-09-05T08:29:46.444Z,51
2018-09-05T08:30:48.565Z,63
2018-09-05T08:31:51.069Z,66
2018-09-05T08:32:53.561Z,64
2018-09-05T08:33:55.680Z,58
2018-09-05T08:34:57.921Z,59
2018-09-05T08:36:00.290Z,61
2018-09-05T08:37:02.277Z,62
2018-09-05T08:38:04.134Z,72
2018-09-05T08:39:06.204Z,83
2018-09-05T08:40:08.315Z,78
2018-09-05T08:41:10.510Z,75
2018-09-05T08:42:12.876Z,70
2018-09-05T08:43:14.976Z,69
2018-09-05T08:44:17.150Z,88
2018-09-05T08:45:20.082Z,92
2018-09-05T08:46:22.549Z,89
2018-09-05T08:47:24.744Z,90
2018-09-05T08:48:26.924Z,119
2018-09-05T08:49:29.289Z,121
2018-09-05T08:50:32.041Z,117
2018-09-05T08:51:34.587Z,156
2018-09-05T08:52:36.965Z,93
2018-09-05T08:53:39.777Z,90
2018-09-05T08:54:42.197Z,83
2018-09-05T08:55:44.930Z,77
2018-09-05T08:56:47.033Z,73
2018-09-05T08:57:49.449Z,86
2018-09-05T08:58:51.611Z,78
2018-09-05T08:59:53.940Z,73
2018-09-05T09:00:56.342Z,71
2018-09-05T09:01:58.441Z,65
2018-09-05T09:03:00.992Z,65
2018-09-05T09:04:03.052Z,68
2018-09-05T09:05:05.201Z,78
2018-09-05T09:06:07.613Z,100
2018-09-05T09:07:09.736Z,108
2018-09-05T09:08:11.839Z,93
2018-09-05T09:09:14.526Z,87
2018-09-05T09:10:16.643Z,112
2018-09-05T09:11:19.031Z,153
2018-09-05T09:12:21.534Z,122
2018-09-05T09:13:23.639Z,118
2018-09-05T09:14:25.761Z,205
2018-09-05T09:15:27.853Z,122
2018-09-05T09:16:30.256Z,121
2018-09-05T09:17:32.654Z,114
2018-09-05T09:18:34.752Z,108
2018-09-05T09:19:36.875Z,110
2018-09-05T09:20:38.978Z,117
2018-09-05T09:21:41.084Z,123
2018-09-05T09:22:43.193Z,108
2018-09-05T09:23:45.697Z,96
2018-09-05T09:24:48.104Z,112
2018-09-05T09:25:50.504Z,95
2018-09-05T09:26:52.902Z,90
2018-09-05T09:27:55.024Z,122
2018-09-05T09:28:57.122Z,119
2018-09-05T09:29:59.237Z,125
2018-09-05T09:31:01.672Z,159
2018-09-05T09:32:03.783Z,147
2018-09-05T09:33:06.270Z,109
2018-09-05T09:34:08.383Z,110
2018-09-05T09:35:10.481Z,106
2018-09-05T09:36:12.598Z,315
2018-09-05T09:37:15.024Z,330
2018-09-05T09:38:17.131Z,344
2018-09-05T09:39:19.233Z,360
2018-09-05T09:40:21.353Z,373
2018-09-05T09:41:23.461Z,374
2018-09-05T09:42:25.568Z,394
2018-09-05T09:43:28.075Z,273
2018-09-05T09:44:30.472Z,193
2018-09-05T09:45:32.585Z,399
2018-09-05T09:46:34.755Z,319
2018-09-05T09:47:36.820Z,389
2018-09-05T09:48:38.923Z,115
2018-09-05T09:49:41.039Z,193
2018-09-05T09:50:43.158Z,270
2018-09-05T09:51:45.555Z,298
2018-09-05T09:52:47.691Z,106
2018-09-05T09:53:49.791Z,103
2018-09-05T09:54:52.190Z,115
2018-09-05T09:55:54.301Z,223
2018-09-05T09:56:56.425Z,96
2018-09-05T09:57:58.528Z,78
2018-09-05T09:59:00.644Z,73
2018-09-05T10:00:03.442Z,72
2018-09-05T10:01:05.549Z,68
2018-09-05T10:02:07.667Z,80
2018-09-05T10:03:10.635Z,94
2018-09-05T10:04:12.698Z,161
2018-09-05T10:05:14.820Z,328
2018-09-05T10:06:16.924Z,355
2018-09-05T10:07:19.545Z,332
2018-09-05T10:08:21.542Z,376
2018-09-05T10:09:23.655Z,110
2018-09-05T10:10:26.221Z,268
2018-09-05T10:11:28.333Z,369
2018-09-05T10:12:30.445Z,366
2018-09-05T10:13:32.588Z,366
2018-09-05T10:14:34.702Z,378
2018-09-05T10:15:36.814Z,358
2018-09-05T10:16:38.938Z,197
2018-09-05T10:17:41.047Z,374
2018-09-05T10:18:43.477Z,373
2018-09-05T10:19:45.593Z,138
2018-09-05T10:20:48.519Z,98
2018-09-05T10:21:50.614Z,126
2018-09-05T10:22:52.738Z,397
2018-09-05T10:23:54.854Z,362
2018-09-05T10:24:56.962Z,389
2018-09-05T10:25:59.095Z,323
2018-09-05T10:27:01.200Z,141
2018-09-05T10:28:03.314Z,159
2018-09-05T10:29:05.432Z,116
2018-09-05T10:30:07.570Z,94
2018-09-05T10:31:09.669Z,391
2018-09-05T10:32:11.791Z,142
2018-09-05T10:33:14.206Z,101
2018-09-05T10:34:16.309Z,350
2018-09-05T10:35:18.440Z,350
2018-09-05T10:36:20.878Z,141
2018-09-05T10:37:22.983Z,382
2018-09-05T10:38:25.102Z,108
2018-09-05T10:39:27.521Z,89
2018-09-05T10:40:30.029Z,88
2018-09-05T10:41:32.153Z,89
2018-09-05T10:42:34.274Z,91
2018-09-05T10:43:37.059Z,102
2018-09-05T10:44:39.176Z,391
2018-09-05T10:45:41.301Z,391
2018-09-05T10:46:43.408Z,395
2018-09-05T10:47:45.836Z,377
2018-09-05T10:48:47.961Z,104
2018-09-05T10:49:50.069Z,120
2018-09-05T10:50:52.201Z,373
2018-09-05T10:51:54.389Z,385
2018-09-05T10:52:56.435Z,412
2018-09-05T10:53:58.553Z,160
2018-09-05T10:55:00.681Z,383
2018-09-05T10:56:03.373Z,247
2018-09-05T10:57:05.784Z,369
2018-09-05T10:58:07.956Z,380
2018-09-05T10:59:10.440Z,378
2018-09-05T11:00:12.571Z,404
2018-09-05T11:01:14.687Z,372
2018-09-05T11:02:16.809Z,358
2018-09-05T11:03:18.916Z,385
2018-09-05T11:04:21.446Z,385
2018-09-05T11:05:23.538Z,372
2018-09-05T11:06:25.949Z,282
2018-09-05T11:07:28.085Z,364
2018-09-05T11:08:30.194Z,365
2018-09-05T11:09:32.315Z,361
2018-09-05T11:10:34.532Z,356
2018-09-05T11:11:36.566Z,340
2018-09-05T11:12:38.672Z,340
2018-09-05T11:13:40.802Z,333
2018-09-05T11:14:42.919Z,391
2018-09-05T11:15:45.041Z,402
2018-09-05T11:16:47.172Z,95
2018-09-05T11:17:49.583Z,344
2018-09-05T11:18:51.712Z,330
2018-09-05T11:19:53.822Z,89
2018-09-05T11:20:56.237Z,377
2018-09-05T11:21:58.366Z,374
2018-09-05T11:23:00.478Z,369
2018-09-05T11:24:02.612Z,362
2018-09-05T11:25:04.730Z,380
2018-09-05T11:26:06.856Z,410
2018-09-05T11:27:08.967Z,411
2018-09-05T11:28:11.401Z,399
2018-09-05T11:29:13.519Z,443
2018-09-05T11:30:15.945Z,416
2018-09-05T11:31:18.364Z,262
2018-09-05T11:32:20.477Z,88
2018-09-05T11:33:22.603Z,406
2018-09-05T11:34:24.723Z,419
2018-09-05T11:35:26.849Z,393
2018-09-05T11:36:28.958Z,365
2018-09-05T11:37:31.092Z,286
2018-09-05T11:38:33.212Z,110
2018-09-05T11:39:35.629Z,376
2018-09-05T11:40:37.770Z,150
2018-09-05T11:41:39.890Z,108
2018-09-05T11:42:42.005Z,103
2018-09-05T11:43:44.148Z,329
2018-09-05T11:44:46.565Z,211
2018-09-05T11:45:48.677Z,199
2018-09-05T11:46:51.384Z,230
2018-09-05T11:47:53.497Z,111
2018-09-05T11:48:55.619Z,212
2018-09-05T11:49:57.746Z,130
2018-09-05T11:51:00.265Z,291
2018-09-05T11:52:02.377Z,128
2018-09-05T11:53:04.517Z,361
2018-09-05T11:54:06.923Z,177
2018-09-05T11:55:09.334Z,71
2018-09-05T11:56:11.473Z,64
2018-09-05T11:57:13.615Z,64
2018-09-05T11:58:15.725Z,68
2018-09-05T11:59:18.241Z,81
2018-09-05T12:00:20.351Z,92
2018-09-05T12:01:22.492Z,81
2018-09-05T12:02:25.042Z,80
2018-09-05T12:03:27.113Z,379
2018-09-05T12:04:29.241Z,92
2018-09-05T12:05:31.352Z,134
2018-09-05T12:06:33.479Z,73
2018-09-05T12:07:35.888Z,79
2018-09-05T12:08:38.010Z,95
2018-09-05T12:09:40.118Z,273
2018-09-05T12:10:42.248Z,89
2018-09-05T12:11:44.395Z,77
2018-09-05T12:12:46.495Z,76
2018-09-05T12:13:48.633Z,75
2018-09-05T12:14:51.137Z,76
2018-09-05T12:15:53.264Z,78
2018-09-05T12:16:55.387Z,90
2018-09-05T12:17:57.514Z,363
2018-09-05T12:18:59.625Z,380
2018-09-05T12:20:01.748Z,365
2018-09-05T12:21:04.150Z,274
2018-09-05T12:22:06.560Z,420
2018-09-05T12:23:08.693Z,405
2018-09-05T12:24:10.815Z,377
2018-09-05T12:25:12.927Z,357
2018-09-05T12:26:15.066Z,368
2018-09-05T12:27:17.179Z,394
2018-09-05T12:28:19.300Z,408
2018-09-05T12:29:21.431Z,112
2018-09-05T12:30:23.539Z,242
2018-09-05T12:31:25.664Z,165
2018-09-05T12:32:27.787Z,134
2018-09-05T12:33:29.912Z,108
2018-09-05T12:34:32.036Z,369
2018-09-05T12:35:34.145Z,104
2018-09-05T12:36:36.709Z,100
2018-09-05T12:37:38.842Z,307
2018-09-05T12:38:40.947Z,234
2018-09-05T12:39:43.080Z,315
2018-09-05T12:40:45.205Z,397
2018-09-05T12:41:47.937Z,382
2018-09-05T12:42:50.351Z,372
2018-09-05T12:43:52.487Z,372
2018-09-05T12:44:55.008Z,358
2018-09-05T12:45:57.179Z,390
2018-09-05T12:46:59.385Z,385
2018-09-05T12:48:01.562Z,370
2018-09-05T12:49:03.742Z,391
2018-09-05T12:50:05.927Z,385
2018-09-05T12:51:08.515Z,375
2018-09-05T12:52:10.707Z,378
2018-09-05T12:53:12.838Z,372
2018-09-05T12:54:14.996Z,374
2018-09-05T12:55:17.147Z,379
2018-09-05T12:56:19.286Z,387
2018-09-05T12:57:21.448Z,383
2018-09-05T12:58:24.444Z,405
2018-09-05T12:59:27.375Z,403
2018-09-05T13:00:31.836Z,378
2018-09-05T13:01:34.116Z,364
2018-09-05T13:02:36.288Z,71
2018-09-05T13:03:38.401Z,58
2018-09-05T13:04:40.575Z,60
2018-09-05T13:05:43.395Z,66
2018-09-05T13:06:45.803Z,104
2018-09-05T13:07:48.760Z,61
2018-09-05T13:08:51.506Z,62
2018-09-05T13:09:54.457Z,63
2018-09-05T13:10:56.578Z,292
2018-09-05T13:11:59.580Z,294
2018-09-05T13:13:01.695Z,305
2018-09-05T13:14:03.867Z,277
2018-09-05T13:15:05.989Z,300
2018-09-05T13:16:08.167Z,340
2018-09-05T13:17:10.273Z,358
2018-09-05T13:18:12.654Z,196
2018-09-05T13:19:19.988Z,285
2018-09-05T13:20:24.487Z,118
2018-09-05T13:21:29.988Z,142
2018-09-05T13:22:32.131Z,128
2018-09-05T13:23:34.245Z,142
2018-09-05T13:24:36.753Z,116
2018-09-05T13:25:38.883Z,230
2018-09-05T13:26:41.070Z,271
2018-09-05T13:27:43.146Z,109
2018-09-05T13:28:45.655Z,161
2018-09-05T13:29:47.773Z,136
2018-09-05T13:30:49.902Z,127
2018-09-05T13:31:52.038Z,234
2018-09-05T13:32:54.158Z,77
2018-09-05T13:33:56.287Z,159
2018-09-05T13:34:58.415Z,89
2018-09-05T13:36:00.824Z,114
2018-09-05T13:37:03.099Z,117
2018-09-05T13:38:05.237Z,89
2018-09-05T13:39:07.374Z,87
2018-09-05T13:40:09.509Z,87
2018-09-05T13:41:11.655Z,89
2018-09-05T13:42:13.767Z,220
2018-09-05T13:43:15.895Z,91
2018-09-05T13:44:18.032Z,99
2018-09-05T13:45:20.165Z,104
2018-09-05T13:46:23.317Z,94
2018-09-05T13:47:25.492Z,114
2018-09-05T13:48:27.618Z,118
2018-09-05T13:49:29.755Z,107
2018-09-05T13:50:31.890Z,121
2018-09-05T13:51:34.016Z,94
2018-09-05T13:52:36.180Z,107
2018-09-05T13:53:38.305Z,125
2018-09-05T13:54:40.865Z,56
2018-09-05T13:55:43.000Z,55
2018-09-05T13:56:45.116Z,53
2018-09-05T13:57:47.251Z,53
2018-09-05T13:58:50.062Z,52
2018-09-05T13:59:52.492Z,52
2018-09-05T14:00:54.622Z,51
2018-09-05T14:01:57.038Z,52
2018-09-05T14:02:59.155Z,52
2018-09-05T14:04:01.322Z,53
2018-09-05T14:05:03.748Z,54
2018-09-05T14:06:05.863Z,54
2018-09-05T14:07:07.997Z,53
2018-09-05T14:08:10.416Z,52
2018-09-05T14:09:12.530Z,51
2018-09-05T14:10:14.666Z,51
2018-09-05T14:11:16.790Z,53
2018-09-05T14:12:18.909Z,53
2018-09-05T14:13:21.055Z,54
2018-09-05T14:14:23.169Z,55
2018-09-05T14:15:25.296Z,55
2018-09-05T14:16:27.713Z,73
2018-09-05T14:17:30.238Z,213
2018-09-05T14:18:32.341Z,114
2018-09-05T14:19:35.161Z,100
2018-09-05T14:20:37.712Z,110
2018-09-05T14:21:39.876Z,124
2018-09-05T14:22:41.938Z,113
2018-09-05T14:23:44.095Z,122
2018-09-05T14:24:46.223Z,131
2018-09-05T14:25:48.352Z,147
2018-09-05T14:26:50.891Z,139
2018-09-05T14:27:53.009Z,114
2018-09-05T14:28:55.132Z,134
2018-09-05T14:29:57.535Z,121
2018-09-05T14:30:59.656Z,242
2018-09-05T14:32:01.793Z,85
2018-09-05T14:33:04.564Z,281
2018-09-05T14:34:06.985Z,243
2018-09-05T14:35:09.124Z,255
2018-09-05T14:36:11.239Z,258
2018-09-05T14:37:13.419Z,247
2018-09-05T14:38:15.559Z,241
2018-09-05T14:39:17.676Z,274
2018-09-05T14:40:20.204Z,276
2018-09-05T14:41:22.339Z,252
2018-09-05T14:42:24.456Z,241
2018-09-05T14:43:26.598Z,238
2018-09-05T14:44:28.722Z,240
2018-09-05T14:45:30.851Z,249
2018-09-05T14:46:32.973Z,244
2018-09-05T14:47:35.119Z,242
2018-09-05T14:48:37.304Z,230
2018-09-05T14:49:39.824Z,229
2018-09-05T14:50:41.959Z,246